sensor_id;sensor_type;location;lat;lon;timestamp;P1;durP1;ratioP1;P2;durP2;ratioP2
7205;SDS011;3644;53.480;10.004;2023-04-06T00:00:38;53.47;;;20.20;;
7205;SDS011;3644;53.480;10.004;2023-04-06T00:03:04;55.73;;;20.67;;
7205;SDS011;3644;53.480;10.004;2023-04-06T00:05:29;62.57;;;18.97;;
7205;SDS011;3644;53.480;10.004;2023-04-06T00:07:56;43.50;;;15.27;;
7205;SDS011;3644;53.480;10.004;2023-04-06T00:10:22;36.00;;;13.73;;
7205;SDS011;3644;53.480;10.004;2023-04-06T00:12:48;39.63;;;13.93;;
7205;SDS011;3644;53.480;10.004;2023-04-06T00:15:13;38.53;;;14.17;;
7205;SDS011;3644;53.480;10.004;2023-04-06T00:17:39;37.90;;;12.10;;
7205;SDS011;3644;53.480;10.004;2023-04-06T00:20:05;35.87;;;12.80;;
7205;SDS011;3644;53.480;10.004;2023-04-06T00:22:31;27.53;;;11.00;;
7205;SDS011;3644;53.480;10.004;2023-04-06T00:24:57;23.00;;;10.90;;
7205;SDS011;3644;53.480;10.004;2023-04-06T00:27:23;17.77;;;10.27;;
7205;SDS011;3644;53.480;10.004;2023-04-06T00:29:48;25.37;;;10.97;;
7205;SDS011;3644;53.480;10.004;2023-04-06T00:32:14;26.33;;;10.33;;
7205;SDS011;3644;53.480;10.004;2023-04-06T00:34:39;17.30;;;7.40;;
7205;SDS011;3644;53.480;10.004;2023-04-06T00:37:05;18.33;;;8.30;;
7205;SDS011;3644;53.480;10.004;2023-04-06T00:39:30;17.30;;;8.23;;
7205;SDS011;3644;53.480;10.004;2023-04-06T00:41:56;15.13;;;5.87;;
7205;SDS011;3644;53.480;10.004;2023-04-06T00:44:22;12.43;;;6.40;;
7205;SDS011;3644;53.480;10.004;2023-04-06T00:46:47;12.07;;;5.87;;
7205;SDS011;3644;53.480;10.004;2023-04-06T00:49:13;9.00;;;4.73;;
7205;SDS011;3644;53.480;10.004;2023-04-06T00:51:40;11.83;;;4.97;;
7205;SDS011;3644;53.480;10.004;2023-04-06T00:54:05;8.80;;;4.57;;
7205;SDS011;3644;53.480;10.004;2023-04-06T00:56:31;9.80;;;5.40;;
7205;SDS011;3644;53.480;10.004;2023-04-06T00:58:57;10.63;;;4.50;;
7205;SDS011;3644;53.480;10.004;2023-04-06T01:01:24;10.60;;;5.17;;
7205;SDS011;3644;53.480;10.004;2023-04-06T01:03:50;11.87;;;5.80;;
7205;SDS011;3644;53.480;10.004;2023-04-06T01:06:16;9.13;;;5.30;;
7205;SDS011;3644;53.480;10.004;2023-04-06T01:08:42;10.90;;;5.67;;
7205;SDS011;3644;53.480;10.004;2023-04-06T01:11:07;21.87;;;7.37;;
7205;SDS011;3644;53.480;10.004;2023-04-06T01:13:33;20.83;;;8.40;;
7205;SDS011;3644;53.480;10.004;2023-04-06T01:15:58;17.57;;;6.67;;
7205;SDS011;3644;53.480;10.004;2023-04-06T01:18:28;12.80;;;6.33;;
7205;SDS011;3644;53.480;10.004;2023-04-06T01:20:54;11.87;;;5.40;;
7205;SDS011;3644;53.480;10.004;2023-04-06T01:23:20;10.90;;;5.40;;
7205;SDS011;3644;53.480;10.004;2023-04-06T01:25:46;6.10;;;4.50;;
7205;SDS011;3644;53.480;10.004;2023-04-06T01:28:11;6.23;;;4.40;;
7205;SDS011;3644;53.480;10.004;2023-04-06T01:30:37;16.83;;;5.67;;
7205;SDS011;3644;53.480;10.004;2023-04-06T01:33:02;10.53;;;4.97;;
7205;SDS011;3644;53.480;10.004;2023-04-06T01:35:28;5.00;;;4.13;;
7205;SDS011;3644;53.480;10.004;2023-04-06T01:37:55;5.50;;;4.17;;
7205;SDS011;3644;53.480;10.004;2023-04-06T01:40:20;5.17;;;3.57;;
7205;SDS011;3644;53.480;10.004;2023-04-06T01:42:46;9.10;;;5.07;;
7205;SDS011;3644;53.480;10.004;2023-04-06T01:45:12;7.17;;;3.93;;
7205;SDS011;3644;53.480;10.004;2023-04-06T01:47:37;5.93;;;4.40;;
7205;SDS011;3644;53.480;10.004;2023-04-06T01:50:03;4.30;;;3.90;;
7205;SDS011;3644;53.480;10.004;2023-04-06T01:52:31;4.70;;;4.13;;
7205;SDS011;3644;53.480;10.004;2023-04-06T01:54:57;3.93;;;3.50;;
7205;SDS011;3644;53.480;10.004;2023-04-06T01:57:23;5.60;;;3.67;;
7205;SDS011;3644;53.480;10.004;2023-04-06T01:59:50;4.67;;;3.80;;
7205;SDS011;3644;53.480;10.004;2023-04-06T02:02:15;4.43;;;4.03;;
7205;SDS011;3644;53.480;10.004;2023-04-06T02:04:41;4.80;;;4.37;;
7205;SDS011;3644;53.480;10.004;2023-04-06T02:07:07;5.40;;;4.40;;
7205;SDS011;3644;53.480;10.004;2023-04-06T02:09:32;13.73;;;4.93;;
7205;SDS011;3644;53.480;10.004;2023-04-06T02:11:57;5.93;;;4.40;;
7205;SDS011;3644;53.480;10.004;2023-04-06T02:14:26;8.37;;;5.10;;
7205;SDS011;3644;53.480;10.004;2023-04-06T02:16:52;7.27;;;4.70;;
7205;SDS011;3644;53.480;10.004;2023-04-06T02:19:17;5.90;;;5.30;;
7205;SDS011;3644;53.480;10.004;2023-04-06T02:21:42;7.30;;;4.53;;
7205;SDS011;3644;53.480;10.004;2023-04-06T02:24:08;7.63;;;5.40;;
7205;SDS011;3644;53.480;10.004;2023-04-06T02:26:33;6.80;;;4.60;;
7205;SDS011;3644;53.480;10.004;2023-04-06T02:28:59;8.43;;;5.47;;
7205;SDS011;3644;53.480;10.004;2023-04-06T02:31:26;7.57;;;5.77;;
7205;SDS011;3644;53.480;10.004;2023-04-06T02:33:51;12.30;;;5.70;;
7205;SDS011;3644;53.480;10.004;2023-04-06T02:36:17;10.90;;;5.40;;
7205;SDS011;3644;53.480;10.004;2023-04-06T02:38:42;7.27;;;5.50;;
7205;SDS011;3644;53.480;10.004;2023-04-06T02:41:08;6.40;;;5.80;;
7205;SDS011;3644;53.480;10.004;2023-04-06T02:43:34;8.23;;;5.53;;
7205;SDS011;3644;53.480;10.004;2023-04-06T02:45:59;5.47;;;4.40;;
7205;SDS011;3644;53.480;10.004;2023-04-06T02:48:25;15.77;;;5.87;;
7205;SDS011;3644;53.480;10.004;2023-04-06T02:50:51;14.40;;;5.93;;
7205;SDS011;3644;53.480;10.004;2023-04-06T02:53:16;9.27;;;5.20;;
7205;SDS011;3644;53.480;10.004;2023-04-06T02:55:41;6.00;;;4.47;;
7205;SDS011;3644;53.480;10.004;2023-04-06T02:58:07;6.67;;;5.77;;
7205;SDS011;3644;53.480;10.004;2023-04-06T03:00:32;9.77;;;5.23;;
7205;SDS011;3644;53.480;10.004;2023-04-06T03:02:58;7.70;;;5.63;;
7205;SDS011;3644;53.480;10.004;2023-04-06T03:05:23;10.03;;;6.20;;
7205;SDS011;3644;53.480;10.004;2023-04-06T03:07:49;9.53;;;5.77;;
7205;SDS011;3644;53.480;10.004;2023-04-06T03:10:14;6.50;;;5.33;;
7205;SDS011;3644;53.480;10.004;2023-04-06T03:12:40;5.73;;;5.10;;
7205;SDS011;3644;53.480;10.004;2023-04-06T03:15:06;7.33;;;5.37;;
7205;SDS011;3644;53.480;10.004;2023-04-06T03:17:32;11.03;;;4.77;;
7205;SDS011;3644;53.480;10.004;2023-04-06T03:19:58;7.30;;;5.20;;
7205;SDS011;3644;53.480;10.004;2023-04-06T03:22:23;8.80;;;5.40;;
7205;SDS011;3644;53.480;10.004;2023-04-06T03:24:49;8.70;;;5.40;;
7205;SDS011;3644;53.480;10.004;2023-04-06T03:27:15;6.30;;;4.90;;
7205;SDS011;3644;53.480;10.004;2023-04-06T03:29:40;18.50;;;5.97;;
7205;SDS011;3644;53.480;10.004;2023-04-06T03:32:06;6.93;;;4.40;;
7205;SDS011;3644;53.480;10.004;2023-04-06T03:34:31;6.50;;;4.97;;
7205;SDS011;3644;53.480;10.004;2023-04-06T03:36:57;11.57;;;5.93;;
7205;SDS011;3644;53.480;10.004;2023-04-06T03:39:22;6.73;;;5.13;;
7205;SDS011;3644;53.480;10.004;2023-04-06T03:41:48;9.43;;;6.50;;
7205;SDS011;3644;53.480;10.004;2023-04-06T03:44:13;6.43;;;4.70;;
7205;SDS011;3644;53.480;10.004;2023-04-06T03:46:39;5.43;;;4.93;;
7205;SDS011;3644;53.480;10.004;2023-04-06T03:49:05;10.17;;;5.40;;
7205;SDS011;3644;53.480;10.004;2023-04-06T03:51:30;6.87;;;4.80;;
7205;SDS011;3644;53.480;10.004;2023-04-06T03:53:56;5.60;;;4.67;;
7205;SDS011;3644;53.480;10.004;2023-04-06T03:56:21;5.53;;;4.90;;
7205;SDS011;3644;53.480;10.004;2023-04-06T03:58:47;9.13;;;5.33;;
7205;SDS011;3644;53.480;10.004;2023-04-06T04:01:15;8.17;;;5.30;;
7205;SDS011;3644;53.480;10.004;2023-04-06T04:03:44;7.97;;;4.80;;
7205;SDS011;3644;53.480;10.004;2023-04-06T04:06:09;7.40;;;5.00;;
7205;SDS011;3644;53.480;10.004;2023-04-06T04:08:35;10.57;;;5.20;;
7205;SDS011;3644;53.480;10.004;2023-04-06T04:11:01;8.93;;;5.00;;
7205;SDS011;3644;53.480;10.004;2023-04-06T04:13:26;6.90;;;4.83;;
7205;SDS011;3644;53.480;10.004;2023-04-06T04:15:52;8.00;;;4.90;;
7205;SDS011;3644;53.480;10.004;2023-04-06T04:18:18;9.70;;;5.50;;
7205;SDS011;3644;53.480;10.004;2023-04-06T04:20:43;9.00;;;5.80;;
7205;SDS011;3644;53.480;10.004;2023-04-06T04:23:09;9.67;;;5.50;;
7205;SDS011;3644;53.480;10.004;2023-04-06T04:25:34;7.50;;;5.10;;
7205;SDS011;3644;53.480;10.004;2023-04-06T04:28:00;5.97;;;4.53;;
7205;SDS011;3644;53.480;10.004;2023-04-06T04:30:26;8.30;;;5.63;;
7205;SDS011;3644;53.480;10.004;2023-04-06T04:32:51;6.50;;;4.90;;
7205;SDS011;3644;53.480;10.004;2023-04-06T04:35:17;10.27;;;5.67;;
7205;SDS011;3644;53.480;10.004;2023-04-06T04:37:42;7.10;;;4.90;;
7205;SDS011;3644;53.480;10.004;2023-04-06T04:40:08;7.20;;;5.43;;
7205;SDS011;3644;53.480;10.004;2023-04-06T04:42:34;13.13;;;5.03;;
7205;SDS011;3644;53.480;10.004;2023-04-06T04:44:59;10.23;;;6.67;;
7205;SDS011;3644;53.480;10.004;2023-04-06T04:47:25;6.10;;;5.40;;
7205;SDS011;3644;53.480;10.004;2023-04-06T04:49:51;10.17;;;5.87;;
7205;SDS011;3644;53.480;10.004;2023-04-06T04:52:16;12.20;;;6.10;;
7205;SDS011;3644;53.480;10.004;2023-04-06T04:54:42;11.93;;;5.60;;
7205;SDS011;3644;53.480;10.004;2023-04-06T04:57:07;10.33;;;5.83;;
7205;SDS011;3644;53.480;10.004;2023-04-06T04:59:33;8.40;;;5.73;;
7205;SDS011;3644;53.480;10.004;2023-04-06T05:01:59;9.80;;;5.80;;
7205;SDS011;3644;53.480;10.004;2023-04-06T05:04:25;9.03;;;6.83;;
7205;SDS011;3644;53.480;10.004;2023-04-06T05:06:51;10.23;;;6.40;;
7205;SDS011;3644;53.480;10.004;2023-04-06T05:09:29;8.87;;;5.73;;
7205;SDS011;3644;53.480;10.004;2023-04-06T05:11:55;7.10;;;5.30;;
7205;SDS011;3644;53.480;10.004;2023-04-06T05:14:20;6.77;;;6.17;;
7205;SDS011;3644;53.480;10.004;2023-04-06T05:16:46;8.40;;;6.63;;
7205;SDS011;3644;53.480;10.004;2023-04-06T05:19:12;10.83;;;6.13;;
7205;SDS011;3644;53.480;10.004;2023-04-06T05:21:37;11.40;;;5.90;;
7205;SDS011;3644;53.480;10.004;2023-04-06T05:24:03;10.23;;;6.00;;
7205;SDS011;3644;53.480;10.004;2023-04-06T05:26:28;12.23;;;7.30;;
7205;SDS011;3644;53.480;10.004;2023-04-06T05:28:54;9.80;;;6.73;;
7205;SDS011;3644;53.480;10.004;2023-04-06T05:31:20;10.27;;;6.13;;
7205;SDS011;3644;53.480;10.004;2023-04-06T05:33:45;7.03;;;5.83;;
7205;SDS011;3644;53.480;10.004;2023-04-06T05:36:11;12.30;;;6.40;;
7205;SDS011;3644;53.480;10.004;2023-04-06T05:38:36;11.90;;;8.13;;
7205;SDS011;3644;53.480;10.004;2023-04-06T05:41:02;7.80;;;6.43;;
7205;SDS011;3644;53.480;10.004;2023-04-06T05:43:27;13.23;;;7.27;;
7205;SDS011;3644;53.480;10.004;2023-04-06T05:45:53;6.77;;;6.00;;
7205;SDS011;3644;53.480;10.004;2023-04-06T05:48:18;12.57;;;8.40;;
7205;SDS011;3644;53.480;10.004;2023-04-06T05:50:47;7.13;;;5.77;;
7205;SDS011;3644;53.480;10.004;2023-04-06T05:53:14;7.87;;;6.10;;
7205;SDS011;3644;53.480;10.004;2023-04-06T05:55:40;9.97;;;6.20;;
7205;SDS011;3644;53.480;10.004;2023-04-06T05:58:06;7.60;;;5.60;;
7205;SDS011;3644;53.480;10.004;2023-04-06T06:00:31;8.27;;;6.10;;
7205;SDS011;3644;53.480;10.004;2023-04-06T06:02:57;8.37;;;6.27;;
7205;SDS011;3644;53.480;10.004;2023-04-06T06:05:23;10.13;;;7.40;;
7205;SDS011;3644;53.480;10.004;2023-04-06T06:07:48;11.70;;;7.70;;
7205;SDS011;3644;53.480;10.004;2023-04-06T06:10:14;10.40;;;6.40;;
7205;SDS011;3644;53.480;10.004;2023-04-06T06:12:40;8.30;;;6.50;;
7205;SDS011;3644;53.480;10.004;2023-04-06T06:15:05;8.83;;;6.30;;
7205;SDS011;3644;53.480;10.004;2023-04-06T06:17:31;7.77;;;5.90;;
7205;SDS011;3644;53.480;10.004;2023-04-06T06:19:57;8.33;;;6.63;;
7205;SDS011;3644;53.480;10.004;2023-04-06T06:22:22;9.13;;;6.90;;
7205;SDS011;3644;53.480;10.004;2023-04-06T06:24:48;8.17;;;5.93;;
7205;SDS011;3644;53.480;10.004;2023-04-06T06:27:15;10.00;;;6.80;;
7205;SDS011;3644;53.480;10.004;2023-04-06T06:29:40;7.57;;;5.40;;
7205;SDS011;3644;53.480;10.004;2023-04-06T06:32:06;8.27;;;6.77;;
7205;SDS011;3644;53.480;10.004;2023-04-06T06:34:35;7.83;;;6.27;;
7205;SDS011;3644;53.480;10.004;2023-04-06T06:37:01;9.03;;;6.50;;
7205;SDS011;3644;53.480;10.004;2023-04-06T06:39:27;10.50;;;8.07;;
7205;SDS011;3644;53.480;10.004;2023-04-06T06:41:52;12.37;;;6.53;;
7205;SDS011;3644;53.480;10.004;2023-04-06T06:44:19;11.93;;;6.60;;
7205;SDS011;3644;53.480;10.004;2023-04-06T06:46:46;13.00;;;6.57;;
7205;SDS011;3644;53.480;10.004;2023-04-06T06:49:12;9.10;;;6.57;;
7205;SDS011;3644;53.480;10.004;2023-04-06T06:51:39;10.13;;;6.70;;
7205;SDS011;3644;53.480;10.004;2023-04-06T06:54:05;10.13;;;6.37;;
7205;SDS011;3644;53.480;10.004;2023-04-06T06:56:31;13.00;;;7.73;;
7205;SDS011;3644;53.480;10.004;2023-04-06T06:58:56;8.70;;;6.60;;
7205;SDS011;3644;53.480;10.004;2023-04-06T07:01:22;21.10;;;6.57;;
7205;SDS011;3644;53.480;10.004;2023-04-06T07:03:47;9.97;;;6.50;;
7205;SDS011;3644;53.480;10.004;2023-04-06T07:06:13;10.50;;;6.40;;
7205;SDS011;3644;53.480;10.004;2023-04-06T07:08:38;11.93;;;7.77;;
7205;SDS011;3644;53.480;10.004;2023-04-06T07:11:04;10.70;;;5.77;;
7205;SDS011;3644;53.480;10.004;2023-04-06T07:13:29;11.00;;;6.80;;
7205;SDS011;3644;53.480;10.004;2023-04-06T07:15:55;9.87;;;7.20;;
7205;SDS011;3644;53.480;10.004;2023-04-06T07:18:20;7.80;;;6.73;;
7205;SDS011;3644;53.480;10.004;2023-04-06T07:20:47;8.03;;;6.13;;
7205;SDS011;3644;53.480;10.004;2023-04-06T07:23:12;8.43;;;6.47;;
7205;SDS011;3644;53.480;10.004;2023-04-06T07:25:38;11.97;;;7.33;;
7205;SDS011;3644;53.480;10.004;2023-04-06T07:28:03;9.50;;;7.33;;
7205;SDS011;3644;53.480;10.004;2023-04-06T07:30:29;9.17;;;7.03;;
7205;SDS011;3644;53.480;10.004;2023-04-06T07:32:55;8.80;;;6.10;;
7205;SDS011;3644;53.480;10.004;2023-04-06T07:35:21;9.53;;;5.87;;
7205;SDS011;3644;53.480;10.004;2023-04-06T07:37:48;10.50;;;6.67;;
7205;SDS011;3644;53.480;10.004;2023-04-06T07:40:13;10.83;;;6.53;;
7205;SDS011;3644;53.480;10.004;2023-04-06T07:42:39;13.00;;;7.03;;
7205;SDS011;3644;53.480;10.004;2023-04-06T07:45:05;12.07;;;6.40;;
7205;SDS011;3644;53.480;10.004;2023-04-06T07:47:31;9.87;;;6.00;;
7205;SDS011;3644;53.480;10.004;2023-04-06T07:49:57;9.50;;;6.10;;
7205;SDS011;3644;53.480;10.004;2023-04-06T07:52:22;12.90;;;6.10;;
7205;SDS011;3644;53.480;10.004;2023-04-06T07:54:48;7.20;;;5.70;;
7205;SDS011;3644;53.480;10.004;2023-04-06T07:57:14;10.97;;;5.77;;
7205;SDS011;3644;53.480;10.004;2023-04-06T07:59:39;10.93;;;6.10;;
7205;SDS011;3644;53.480;10.004;2023-04-06T08:02:05;9.33;;;5.60;;
7205;SDS011;3644;53.480;10.004;2023-04-06T08:04:31;8.83;;;5.40;;
7205;SDS011;3644;53.480;10.004;2023-04-06T08:06:56;9.33;;;5.20;;
7205;SDS011;3644;53.480;10.004;2023-04-06T08:09:22;9.80;;;4.93;;
7205;SDS011;3644;53.480;10.004;2023-04-06T08:11:47;6.23;;;5.17;;
7205;SDS011;3644;53.480;10.004;2023-04-06T08:14:14;9.30;;;6.00;;
7205;SDS011;3644;53.480;10.004;2023-04-06T08:16:40;9.20;;;5.97;;
7205;SDS011;3644;53.480;10.004;2023-04-06T08:19:06;16.53;;;5.90;;
7205;SDS011;3644;53.480;10.004;2023-04-06T08:21:34;8.80;;;5.93;;
7205;SDS011;3644;53.480;10.004;2023-04-06T08:24:00;12.90;;;6.20;;
7205;SDS011;3644;53.480;10.004;2023-04-06T08:26:26;11.10;;;6.20;;
7205;SDS011;3644;53.480;10.004;2023-04-06T08:28:52;8.57;;;5.80;;
7205;SDS011;3644;53.480;10.004;2023-04-06T08:31:17;9.43;;;5.80;;
7205;SDS011;3644;53.480;10.004;2023-04-06T08:33:43;7.33;;;5.30;;
7205;SDS011;3644;53.480;10.004;2023-04-06T08:36:12;6.60;;;5.23;;
7205;SDS011;3644;53.480;10.004;2023-04-06T08:38:39;7.60;;;5.17;;
7205;SDS011;3644;53.480;10.004;2023-04-06T08:41:12;6.53;;;5.53;;
7205;SDS011;3644;53.480;10.004;2023-04-06T08:43:42;10.90;;;5.30;;
7205;SDS011;3644;53.480;10.004;2023-04-06T08:46:11;9.43;;;5.80;;
7205;SDS011;3644;53.480;10.004;2023-04-06T08:48:37;9.60;;;5.70;;
7205;SDS011;3644;53.480;10.004;2023-04-06T08:51:04;5.60;;;4.93;;
7205;SDS011;3644;53.480;10.004;2023-04-06T08:53:30;15.37;;;5.20;;
7205;SDS011;3644;53.480;10.004;2023-04-06T08:55:56;9.33;;;6.10;;
7205;SDS011;3644;53.480;10.004;2023-04-06T08:58:24;8.13;;;6.13;;
7205;SDS011;3644;53.480;10.004;2023-04-06T09:00:53;7.90;;;5.13;;
7205;SDS011;3644;53.480;10.004;2023-04-06T09:03:19;6.37;;;5.37;;
7205;SDS011;3644;53.480;10.004;2023-04-06T09:05:45;7.17;;;4.93;;
7205;SDS011;3644;53.480;10.004;2023-04-06T09:08:12;12.33;;;4.60;;
7205;SDS011;3644;53.480;10.004;2023-04-06T09:10:40;11.43;;;5.07;;
7205;SDS011;3644;53.480;10.004;2023-04-06T09:13:06;6.33;;;4.63;;
7205;SDS011;3644;53.480;10.004;2023-04-06T09:15:32;11.37;;;4.77;;
7205;SDS011;3644;53.480;10.004;2023-04-06T09:17:58;17.43;;;4.90;;
7205;SDS011;3644;53.480;10.004;2023-04-06T09:20:24;4.93;;;4.43;;
7205;SDS011;3644;53.480;10.004;2023-04-06T09:22:51;10.27;;;3.83;;
7205;SDS011;3644;53.480;10.004;2023-04-06T09:25:20;3.60;;;3.30;;
7205;SDS011;3644;53.480;10.004;2023-04-06T09:27:47;5.57;;;3.83;;
7205;SDS011;3644;53.480;10.004;2023-04-06T09:30:14;6.10;;;3.50;;
7205;SDS011;3644;53.480;10.004;2023-04-06T09:32:45;8.33;;;3.60;;
7205;SDS011;3644;53.480;10.004;2023-04-06T09:35:12;3.60;;;3.03;;
7205;SDS011;3644;53.480;10.004;2023-04-06T09:37:38;4.20;;;3.10;;
7205;SDS011;3644;53.480;10.004;2023-04-06T09:40:04;4.53;;;3.53;;
7205;SDS011;3644;53.480;10.004;2023-04-06T09:42:30;5.63;;;2.80;;
7205;SDS011;3644;53.480;10.004;2023-04-06T09:44:56;4.97;;;3.20;;
7205;SDS011;3644;53.480;10.004;2023-04-06T09:47:22;4.87;;;3.03;;
7205;SDS011;3644;53.480;10.004;2023-04-06T09:49:50;4.87;;;3.10;;
7205;SDS011;3644;53.480;10.004;2023-04-06T09:52:18;5.13;;;3.03;;
7205;SDS011;3644;53.480;10.004;2023-04-06T09:54:45;8.57;;;2.97;;
7205;SDS011;3644;53.480;10.004;2023-04-06T09:57:24;6.00;;;3.13;;
7205;SDS011;3644;53.480;10.004;2023-04-06T10:00:06;4.37;;;3.23;;
7205;SDS011;3644;53.480;10.004;2023-04-06T10:02:50;2.90;;;2.70;;
7205;SDS011;3644;53.480;10.004;2023-04-06T10:05:40;7.30;;;3.50;;
7205;SDS011;3644;53.480;10.004;2023-04-06T10:08:10;7.33;;;4.70;;
7205;SDS011;3644;53.480;10.004;2023-04-06T10:10:36;9.40;;;3.77;;
7205;SDS011;3644;53.480;10.004;2023-04-06T10:13:03;6.47;;;3.73;;
7205;SDS011;3644;53.480;10.004;2023-04-06T10:15:29;4.07;;;3.60;;
7205;SDS011;3644;53.480;10.004;2023-04-06T10:17:55;4.67;;;3.40;;
7205;SDS011;3644;53.480;10.004;2023-04-06T10:23:09;5.03;;;3.03;;
7205;SDS011;3644;53.480;10.004;2023-04-06T10:25:51;5.30;;;3.83;;
7205;SDS011;3644;53.480;10.004;2023-04-06T10:28:18;8.10;;;4.60;;
7205;SDS011;3644;53.480;10.004;2023-04-06T10:30:44;5.53;;;4.03;;
7205;SDS011;3644;53.480;10.004;2023-04-06T10:33:17;5.27;;;3.47;;
7205;SDS011;3644;53.480;10.004;2023-04-06T10:35:44;4.90;;;3.50;;
7205;SDS011;3644;53.480;10.004;2023-04-06T10:38:09;6.73;;;4.00;;
7205;SDS011;3644;53.480;10.004;2023-04-06T10:40:38;5.80;;;3.83;;
7205;SDS011;3644;53.480;10.004;2023-04-06T10:43:19;5.03;;;4.10;;
7205;SDS011;3644;53.480;10.004;2023-04-06T10:45:52;5.07;;;4.00;;
7205;SDS011;3644;53.480;10.004;2023-04-06T10:48:24;5.30;;;3.90;;
7205;SDS011;3644;53.480;10.004;2023-04-06T10:50:51;7.80;;;4.47;;
7205;SDS011;3644;53.480;10.004;2023-04-06T10:53:26;4.70;;;4.20;;
7205;SDS011;3644;53.480;10.004;2023-04-06T10:55:55;5.40;;;4.00;;
7205;SDS011;3644;53.480;10.004;2023-04-06T10:58:24;7.23;;;4.40;;
7205;SDS011;3644;53.480;10.004;2023-04-06T11:00:51;7.20;;;4.43;;
7205;SDS011;3644;53.480;10.004;2023-04-06T11:03:17;7.03;;;4.50;;
7205;SDS011;3644;53.480;10.004;2023-04-06T11:05:43;8.73;;;5.97;;
7205;SDS011;3644;53.480;10.004;2023-04-06T11:08:10;8.70;;;4.30;;
7205;SDS011;3644;53.480;10.004;2023-04-06T11:10:36;9.67;;;5.13;;
7205;SDS011;3644;53.480;10.004;2023-04-06T11:13:01;7.17;;;4.37;;
7205;SDS011;3644;53.480;10.004;2023-04-06T11:15:33;6.20;;;4.20;;
7205;SDS011;3644;53.480;10.004;2023-04-06T11:18:03;8.70;;;4.83;;
7205;SDS011;3644;53.480;10.004;2023-04-06T11:20:29;9.10;;;5.00;;
7205;SDS011;3644;53.480;10.004;2023-04-06T11:22:55;7.53;;;4.10;;
7205;SDS011;3644;53.480;10.004;2023-04-06T11:25:20;8.63;;;4.40;;
7205;SDS011;3644;53.480;10.004;2023-04-06T11:27:46;7.10;;;4.23;;
7205;SDS011;3644;53.480;10.004;2023-04-06T11:30:13;8.07;;;4.63;;
7205;SDS011;3644;53.480;10.004;2023-04-06T11:32:40;10.33;;;5.23;;
7205;SDS011;3644;53.480;10.004;2023-04-06T11:35:07;7.03;;;4.73;;
7205;SDS011;3644;53.480;10.004;2023-04-06T11:37:36;7.90;;;4.80;;
7205;SDS011;3644;53.480;10.004;2023-04-06T11:40:01;8.23;;;4.67;;
7205;SDS011;3644;53.480;10.004;2023-04-06T11:42:28;6.87;;;4.90;;
7205;SDS011;3644;53.480;10.004;2023-04-06T11:44:55;12.00;;;5.30;;
7205;SDS011;3644;53.480;10.004;2023-04-06T11:47:28;5.57;;;4.40;;
7205;SDS011;3644;53.480;10.004;2023-04-06T11:49:55;10.80;;;4.70;;
7205;SDS011;3644;53.480;10.004;2023-04-06T11:52:24;8.50;;;4.10;;
7205;SDS011;3644;53.480;10.004;2023-04-06T11:54:52;8.17;;;4.87;;
7205;SDS011;3644;53.480;10.004;2023-04-06T11:57:20;10.30;;;5.57;;
7205;SDS011;3644;53.480;10.004;2023-04-06T11:59:49;11.00;;;4.70;;
7205;SDS011;3644;53.480;10.004;2023-04-06T12:02:14;8.93;;;5.80;;
7205;SDS011;3644;53.480;10.004;2023-04-06T12:04:40;8.37;;;5.43;;
7205;SDS011;3644;53.480;10.004;2023-04-06T12:07:06;11.43;;;5.50;;
7205;SDS011;3644;53.480;10.004;2023-04-06T12:09:31;8.30;;;5.37;;
7205;SDS011;3644;53.480;10.004;2023-04-06T12:11:57;7.50;;;4.87;;
7205;SDS011;3644;53.480;10.004;2023-04-06T12:14:22;6.87;;;4.73;;
7205;SDS011;3644;53.480;10.004;2023-04-06T12:16:48;6.47;;;4.80;;
7205;SDS011;3644;53.480;10.004;2023-04-06T12:19:14;20.40;;;5.57;;
7205;SDS011;3644;53.480;10.004;2023-04-06T12:21:40;7.17;;;4.60;;
7205;SDS011;3644;53.480;10.004;2023-04-06T12:24:05;7.23;;;5.07;;
7205;SDS011;3644;53.480;10.004;2023-04-06T12:26:31;7.10;;;4.63;;
7205;SDS011;3644;53.480;10.004;2023-04-06T12:28:58;14.83;;;5.37;;
7205;SDS011;3644;53.480;10.004;2023-04-06T12:31:31;7.00;;;4.93;;
7205;SDS011;3644;53.480;10.004;2023-04-06T12:33:59;9.07;;;5.73;;
7205;SDS011;3644;53.480;10.004;2023-04-06T12:36:24;9.27;;;5.90;;
7205;SDS011;3644;53.480;10.004;2023-04-06T12:38:50;9.40;;;6.00;;
7205;SDS011;3644;53.480;10.004;2023-04-06T12:41:16;8.10;;;5.70;;
7205;SDS011;3644;53.480;10.004;2023-04-06T12:43:42;6.57;;;5.50;;
7205;SDS011;3644;53.480;10.004;2023-04-06T12:46:09;10.50;;;5.30;;
7205;SDS011;3644;53.480;10.004;2023-04-06T12:48:35;12.10;;;5.97;;
7205;SDS011;3644;53.480;10.004;2023-04-06T12:51:02;9.93;;;6.37;;
7205;SDS011;3644;53.480;10.004;2023-04-06T12:53:29;6.90;;;5.17;;
7205;SDS011;3644;53.480;10.004;2023-04-06T12:55:55;9.60;;;5.60;;
7205;SDS011;3644;53.480;10.004;2023-04-06T12:58:22;9.53;;;6.07;;
7205;SDS011;3644;53.480;10.004;2023-04-06T13:00:48;6.43;;;4.97;;
7205;SDS011;3644;53.480;10.004;2023-04-06T13:03:15;7.00;;;4.90;;
7205;SDS011;3644;53.480;10.004;2023-04-06T13:05:45;7.33;;;5.10;;
7205;SDS011;3644;53.480;10.004;2023-04-06T13:08:12;10.53;;;6.33;;
7205;SDS011;3644;53.480;10.004;2023-04-06T13:10:42;12.83;;;5.90;;
7205;SDS011;3644;53.480;10.004;2023-04-06T13:13:09;11.17;;;6.03;;
7205;SDS011;3644;53.480;10.004;2023-04-06T13:15:34;10.60;;;6.03;;
7205;SDS011;3644;53.480;10.004;2023-04-06T13:18:01;8.27;;;5.80;;
7205;SDS011;3644;53.480;10.004;2023-04-06T13:20:27;6.27;;;4.67;;
7205;SDS011;3644;53.480;10.004;2023-04-06T13:22:52;7.13;;;5.03;;
7205;SDS011;3644;53.480;10.004;2023-04-06T13:25:18;9.80;;;6.30;;
7205;SDS011;3644;53.480;10.004;2023-04-06T13:27:43;6.90;;;4.80;;
7205;SDS011;3644;53.480;10.004;2023-04-06T13:30:11;9.00;;;4.87;;
7205;SDS011;3644;53.480;10.004;2023-04-06T13:32:37;9.23;;;5.77;;
7205;SDS011;3644;53.480;10.004;2023-04-06T13:35:03;6.83;;;5.37;;
7205;SDS011;3644;53.480;10.004;2023-04-06T13:37:29;6.60;;;5.50;;
7205;SDS011;3644;53.480;10.004;2023-04-06T13:39:55;12.60;;;5.07;;
7205;SDS011;3644;53.480;10.004;2023-04-06T13:42:20;5.80;;;4.60;;
7205;SDS011;3644;53.480;10.004;2023-04-06T13:44:46;8.80;;;5.80;;
7205;SDS011;3644;53.480;10.004;2023-04-06T13:47:12;5.57;;;4.30;;
7205;SDS011;3644;53.480;10.004;2023-04-06T13:49:38;6.80;;;5.40;;
7205;SDS011;3644;53.480;10.004;2023-04-06T13:52:03;5.73;;;4.80;;
7205;SDS011;3644;53.480;10.004;2023-04-06T13:54:29;9.50;;;6.60;;
7205;SDS011;3644;53.480;10.004;2023-04-06T13:56:54;8.63;;;5.43;;
7205;SDS011;3644;53.480;10.004;2023-04-06T13:59:21;9.23;;;5.10;;
7205;SDS011;3644;53.480;10.004;2023-04-06T14:01:47;9.20;;;4.93;;
7205;SDS011;3644;53.480;10.004;2023-04-06T14:04:12;8.90;;;5.37;;
7205;SDS011;3644;53.480;10.004;2023-04-06T14:06:38;3.97;;;3.53;;
7205;SDS011;3644;53.480;10.004;2023-04-06T14:09:03;5.50;;;4.70;;
7205;SDS011;3644;53.480;10.004;2023-04-06T14:11:29;8.90;;;6.57;;
7205;SDS011;3644;53.480;10.004;2023-04-06T14:13:55;9.63;;;6.87;;
7205;SDS011;3644;53.480;10.004;2023-04-06T14:16:22;15.80;;;5.77;;
7205;SDS011;3644;53.480;10.004;2023-04-06T14:18:48;12.83;;;6.00;;
7205;SDS011;3644;53.480;10.004;2023-04-06T14:21:14;15.33;;;6.70;;
7205;SDS011;3644;53.480;10.004;2023-04-06T14:23:40;9.43;;;5.07;;
7205;SDS011;3644;53.480;10.004;2023-04-06T14:26:06;11.13;;;6.00;;
7205;SDS011;3644;53.480;10.004;2023-04-06T14:28:33;6.17;;;4.93;;
7205;SDS011;3644;53.480;10.004;2023-04-06T14:31:01;8.40;;;5.60;;
7205;SDS011;3644;53.480;10.004;2023-04-06T14:33:28;7.97;;;5.20;;
7205;SDS011;3644;53.480;10.004;2023-04-06T14:35:55;8.50;;;5.10;;
7205;SDS011;3644;53.480;10.004;2023-04-06T14:38:20;5.20;;;4.70;;
7205;SDS011;3644;53.480;10.004;2023-04-06T14:40:46;8.03;;;5.40;;
7205;SDS011;3644;53.480;10.004;2023-04-06T14:43:12;5.53;;;4.00;;
7205;SDS011;3644;53.480;10.004;2023-04-06T14:45:37;8.47;;;5.17;;
7205;SDS011;3644;53.480;10.004;2023-04-06T14:48:04;7.37;;;5.60;;
7205;SDS011;3644;53.480;10.004;2023-04-06T14:50:31;7.33;;;5.63;;
7205;SDS011;3644;53.480;10.004;2023-04-06T14:52:58;7.40;;;5.30;;